<?xml version='1.0' encoding='utf-8'?>
<gpx xmlns="http://www.topografix.com/GPX/1/1" xmlns:gpxx="http://www.garmin.com/xmlschemas/GpxExtensions/v3" xmlns:xsi="http://www.w3.org/2001/XMLSchema-instance" creator="eTrex 30" version="1.1" xsi:schemaLocation="http://www.topografix.com/GPX/1/1 http://www.topografix.com/GPX/1/1/gpx.xsd http://www.garmin.com/xmlschemas/GpxExtensions/v3 http://www8.garmin.com/xmlschemas/GpxExtensionsv3.xsd http://www.garmin.com/xmlschemas/WaypointExtension/v1 http://www8.garmin.com/xmlschemas/WaypointExtensionv1.xsd http://www.garmin.com/xmlschemas/TrackPointExtension/v1 http://www.garmin.com/xmlschemas/TrackPointExtensionv1.xsd"><metadata><link href="http://www.garmin.com"><text>Garmin International</text></link><time>2015-11-19T16:43:23Z</time></metadata><trk><name>19-NOV-15 18:43:20</name><extensions><gpxx:TrackExtension><gpxx:DisplayColor>Cyan</gpxx:DisplayColor></gpxx:TrackExtension></extensions><trkseg><trkpt lat="29.5547385234" lon="34.9536360987"><ele>15.7</ele><time>2015-11-19T12:10:39Z</time></trkpt><trkpt lat="29.5548432972" lon="34.9535975419"><ele>16.0</ele><time>2015-11-19T12:12:03Z</time></trkpt><trkpt lat="29.5547371823" lon="34.9535996374"><ele>15.8</ele><time>2015-11-19T12:12:11Z</time></trkpt><trkpt lat="29.5544365235" lon="34.9547677394"><ele>9.6</ele><time>2015-11-19T12:12:53Z</time></trkpt><trkpt lat="29.5552410185" lon="34.9550115690"><ele>12.7</ele><time>2015-11-19T12:13:16Z</time></trkpt><trkpt lat="29.5579972398" lon="34.9566963315"><ele>11.4</ele><time>2015-11-19T12:14:23Z</time></trkpt><trkpt lat="29.5602849964" lon="34.9582393561"><ele>9.3</ele><time>2015-11-19T12:15:21Z</time></trkpt><trkpt lat="29.5631296467" lon="34.9605406914"><ele>7.2</ele><time>2015-11-19T12:16:33Z</time></trkpt><trkpt lat="29.5676065888" lon="34.9634990841"><ele>12.9</ele><time>2015-11-19T12:18:36Z</time></trkpt><trkpt lat="29.5695853885" lon="34.9646257795"><ele>19.0</ele><time>2015-11-19T12:19:39Z</time></trkpt><trkpt lat="29.5698298886" lon="34.9646355864"><ele>19.4</ele><time>2015-11-19T12:19:47Z</time></trkpt><trkpt lat="29.5718346722" lon="34.9658855796"><ele>13.9</ele><time>2015-11-19T12:20:47Z</time></trkpt><trkpt lat="29.5774859190" lon="34.9676745292"><ele>32.0</ele><time>2015-11-19T12:23:28Z</time></trkpt><trkpt lat="29.5778213628" lon="34.9679316860"><ele>33.1</ele><time>2015-11-19T12:23:42Z</time></trkpt><trkpt lat="29.5790164545" lon="34.9681762699"><ele>41.3</ele><time>2015-11-19T12:24:24Z</time></trkpt><trkpt lat="29.5816304348" lon="34.9698633794"><ele>42.2</ele><time>2015-11-19T12:25:47Z</time></trkpt><trkpt lat="29.5815714262" lon="34.9702786189"><ele>40.1</ele><time>2015-11-19T12:25:55Z</time></trkpt><trkpt lat="29.5806907397" lon="34.9708418828"><ele>33.7</ele><time>2015-11-19T12:26:09Z</time></trkpt><trkpt lat="29.5806332398" lon="34.9714457989"><ele>32.4</ele><time>2015-11-19T12:26:19Z</time></trkpt><trkpt lat="29.5798457600" lon="34.9736518320"><ele>24.1</ele><time>2015-11-19T12:26:50Z</time></trkpt><trkpt lat="29.5796182752" lon="34.9736760557"><ele>23.6</ele><time>2015-11-19T12:26:54Z</time></trkpt><trkpt lat="29.5778797008" lon="34.9727185909"><ele>21.5</ele><time>2015-11-19T12:27:25Z</time></trkpt><trkpt lat="29.5756666269" lon="34.9753874727"><ele>9.1</ele><time>2015-11-19T12:28:10Z</time></trkpt><trkpt lat="29.5751458593" lon="34.9764411617"><ele>8.8</ele><time>2015-11-19T12:29:31Z</time></trkpt><trkpt lat="29.5751460269" lon="34.9770321697"><ele>9.2</ele><time>2015-11-19T12:30:31Z</time></trkpt><trkpt lat="29.5754511282" lon="34.9769745860"><ele>9.7</ele><time>2015-11-19T12:38:23Z</time></trkpt><trkpt lat="29.5752758626" lon="34.9771407153"><ele>9.6</ele><time>2015-11-19T12:40:16Z</time></trkpt><trkpt lat="29.5752206258" lon="34.9778109323"><ele>9.4</ele><time>2015-11-19T12:40:44Z</time></trkpt><trkpt lat="29.5750558376" lon="34.9779012892"><ele>9.2</ele><time>2015-11-19T12:41:11Z</time></trkpt><trkpt lat="29.5752782095" lon="34.9777771533"><ele>9.8</ele><time>2015-11-19T12:41:41Z</time></trkpt><trkpt lat="29.5751109906" lon="34.9783446081"><ele>9.1</ele><time>2015-11-19T12:43:29Z</time></trkpt><trkpt lat="29.5751430094" lon="34.9789724965"><ele>10.0</ele><time>2015-11-19T12:43:56Z</time></trkpt><trkpt lat="29.5753311832" lon="34.9800292868"><ele>11.3</ele><time>2015-11-19T12:44:28Z</time></trkpt><trkpt lat="29.5753609389" lon="34.9808028527"><ele>12.2</ele><time>2015-11-19T12:45:31Z</time></trkpt><trkpt lat="29.5752838254" lon="34.9807486217"><ele>12.2</ele><time>2015-11-19T12:45:59Z</time></trkpt><trkpt lat="29.5754992403" lon="34.9807404075"><ele>11.9</ele><time>2015-11-19T12:49:09Z</time></trkpt><trkpt lat="29.5751738548" lon="34.9808905274"><ele>12.7</ele><time>2015-11-19T12:51:30Z</time></trkpt><trkpt lat="29.5752796344" lon="34.9808475282"><ele>12.5</ele><time>2015-11-19T12:53:53Z</time></trkpt><trkpt lat="29.5751680713" lon="34.9808070436"><ele>12.5</ele><time>2015-11-19T13:01:11Z</time></trkpt><trkpt lat="29.5752131660" lon="34.9810336903"><ele>13.1</ele><time>2015-11-19T13:05:22Z</time></trkpt><trkpt lat="29.5753264893" lon="34.9809682276"><ele>12.8</ele><time>2015-11-19T13:17:30Z</time></trkpt><trkpt lat="29.5755983982" lon="34.9817684479"><ele>13.7</ele><time>2015-11-19T13:21:09Z</time></trkpt><trkpt lat="29.5775971469" lon="34.9906860385"><ele>22.7</ele><time>2015-11-19T13:25:55Z</time></trkpt><trkpt lat="29.5795005932" lon="35.0084729400"><ele>49.6</ele><time>2015-11-19T13:33:13Z</time></trkpt><trkpt lat="29.5795059577" lon="35.0103581138"><ele>53.8</ele><time>2015-11-19T13:33:57Z</time></trkpt><trkpt lat="29.5786984451" lon="35.0131217111"><ele>61.4</ele><time>2015-11-19T13:35:10Z</time></trkpt><trkpt lat="29.5712471008" lon="35.0131076295"><ele>61.4</ele><time>2015-11-19T13:36:59Z</time></trkpt><trkpt lat="29.5675508492" lon="35.0135319214"><ele>61.9</ele><time>2015-11-19T13:37:44Z</time></trkpt><trkpt lat="29.5673549641" lon="35.0120731350"><ele>57.4</ele><time>2015-11-19T13:38:00Z</time></trkpt><trkpt lat="29.5673476718" lon="35.0027756765"><ele>39.6</ele><time>2015-11-19T13:39:37Z</time></trkpt><trkpt lat="29.5671920199" lon="35.0012998749"><ele>36.1</ele><time>2015-11-19T13:39:53Z</time></trkpt><trkpt lat="29.5665465295" lon="35.0004156679"><ele>35.9</ele><time>2015-11-19T13:40:05Z</time></trkpt><trkpt lat="29.5646015927" lon="34.9983948749"><ele>30.7</ele><time>2015-11-19T13:40:36Z</time></trkpt><trkpt lat="29.5636595506" lon="34.9982661288"><ele>30.8</ele><time>2015-11-19T13:40:47Z</time></trkpt><trkpt lat="29.5486319717" lon="34.9983026739"><ele>19.8</ele><time>2015-11-19T13:43:40Z</time></trkpt><trkpt lat="29.5462541934" lon="34.9975892901"><ele>14.0</ele><time>2015-11-19T13:44:27Z</time></trkpt><trkpt lat="29.5432744268" lon="34.9976374023"><ele>10.5</ele><time>2015-11-19T13:45:01Z</time></trkpt><trkpt lat="29.5409497898" lon="34.9982147478"><ele>8.9</ele><time>2015-11-19T13:45:30Z</time></trkpt><trkpt lat="29.5354193263" lon="34.9983632751"><ele>4.7</ele><time>2015-11-19T13:46:36Z</time></trkpt><trkpt lat="29.5339443628" lon="34.9973048922"><ele>3.7</ele><time>2015-11-19T13:47:01Z</time></trkpt><trkpt lat="29.5337931532" lon="34.9968124554"><ele>2.7</ele><time>2015-11-19T13:47:08Z</time></trkpt><trkpt lat="29.5336213242" lon="34.9967169855"><ele>2.6</ele><time>2015-11-19T13:47:11Z</time></trkpt><trkpt lat="29.5325562358" lon="34.9976079818"><ele>4.9</ele><time>2015-11-19T13:47:33Z</time></trkpt><trkpt lat="29.5320902020" lon="34.9982718285"><ele>6.4</ele><time>2015-11-19T13:47:45Z</time></trkpt><trkpt lat="29.5317892078" lon="34.9997430202"><ele>6.9</ele><time>2015-11-19T13:48:24Z</time></trkpt><trkpt lat="29.5319904573" lon="34.9996643141"><ele>8.4</ele><time>2015-11-19T13:48:51Z</time></trkpt><trkpt lat="29.5322155114" lon="34.9990023952"><ele>11.3</ele><time>2015-11-19T13:52:03Z</time></trkpt></trkseg></trk></gpx>